Flight Track Log - Related Links

Times and Time Zones

All times are in EDT time to prevent confusion due to time zone crossing. See the UAL910 flight status page for this flight to view local times or setup timezone preferences in your user account.

Time Position Orientation Groundspeed Altitude Reporting Facility
EDT Latitude Longitude Course Direction KTS MPH feet Rate Location/Type
Sun 10:25:50 AM 39.8833 -104.6000 82° East 198 228 6,400  Level Denver TRACON
Sun 10:26:44 AM 39.9000 -104.5167 75° East 246 283 8,300 1,895 Climbing Denver TRACON
Sun 10:27:44 AM 39.9167 -104.4333 75° East 285 328 10,000 1,684 Climbing Denver TRACON
Sun 10:28:00 AM 39.9260 -104.2561 79° East  Level FlightAware Approximate
Sun 10:28:38 AM 39.9333 -104.3333 78° East 326 375 11,500  Level Denver TRACON
Sun 10:29:00 AM 39.9474 -104.1171 79° East  Level FlightAware Approximate
Sun 10:29:13 AM 39.9497 -104.2575 74° East 339 390 12,800  Level Denver Center
Sun 10:30:00 AM 39.9795 -103.9818 72° East  Level FlightAware Approximate
Sun 10:30:15 AM 39.9725 -104.1528 74° East 354 407 15,000  Level Denver Center
Sun 10:31:00 AM 39.9972 -103.8421 82° East  Level FlightAware Approximate
Sun 10:31:17 AM 39.9903 -103.9875 82° East 375 432 17,100  Level Denver Center
Sun 10:32:19 AM 40.0097 -103.8397 80° East 415 478 18,500 1,403 Climbing Denver Center
Sun 10:33:21 AM 40.0311 -103.7036 78° East 414 476 20,000 1,742 Climbing Denver Center
Sun 10:34:23 AM 40.0633 -103.5192 77° East 437 503 22,100 1,694 Climbing Denver Center
Sun 10:35:25 AM 40.0886 -103.3606 78° East 446 513 23,500 1,355 Climbing Denver Center
Sun 10:36:27 AM 40.1142 -103.1961 78° East 460 529 24,900 1,355 Climbing Denver Center
Sun 10:37:29 AM 40.1411 -103.0306 78° East 467 537 26,300 1,306 Climbing Denver Center
Sun 10:38:31 AM 40.1667 -102.8625 79° East 472 543 27,600 1,210 Climbing Denver Center
Sun 10:39:33 AM 40.1931 -102.6919 78° East 479 551 28,800 1,500 Climbing Denver Center
Sun 10:40:35 AM 40.2222 -102.5011 79° East 474 545 30,700 1,452 Climbing Denver Center
Sun 10:41:37 AM 40.2467 -102.3414 79° East 469 540 31,800 1,306 Climbing Denver Center
Sun 10:42:39 AM 40.2756 -102.1553 78° East 467 537 33,400 1,306 Climbing Denver Center
Sun 10:43:41 AM 40.2992 -101.9975 79° East 463 533 34,500 774 Climbing Denver Center
Sun 10:44:43 AM 40.3267 -101.8131 79° East 463 533 35,000 242 Climbing Denver Center
Sun 10:45:45 AM 40.3497 -101.6547 79° East 464 534 35,000 48 Level Denver Center
Sun 10:46:48 AM 40.3775 -101.4686 79° East 467 537 35,100 720 Climbing Denver Center
Sun 10:47:50 AM 40.4000 -101.3081 80° East 468 539 36,500 919 Climbing Denver Center
Sun 10:48:52 AM 40.4261 -101.1256 79° East 461 531 37,000 242 Climbing Denver Center
Sun 10:49:54 AM 40.4481 -100.9686 80° East 460 529 37,000  Level Denver Center
Sun 10:50:56 AM 40.5000 -100.7989 68° East 454 522 37,000  Level Denver Center
Sun 10:51:58 AM 40.5533 -100.6569 64° Northeast 457 526 37,000  Level Denver Center
Sun 10:53:00 AM 40.6128 -100.4931 64° Northeast 450 518 37,000  Level Denver Center
Sun 10:54:02 AM 40.6639 -100.3550 64° Northeast 443 510 37,000  Level Denver Center
Sun 10:55:04 AM 40.7217 -100.1967 64° Northeast 435 501 37,000  Level Denver Center
Sun 10:56:06 AM 40.7711 -100.0603 64° Northeast 433 498 37,000  Level Denver Center
Sun 10:57:08 AM 40.8292 -99.9022 64° Northeast 430 495 37,000  Level Denver Center
Sun 10:58:10 AM 40.8864 -99.7500 64° Northeast 434 499 37,000  Level Denver Center
Sun 10:59:12 AM 40.9392 -99.6047 64° Northeast 437 503 37,000  Level Denver Center
Sun 11:00:14 AM 40.9922 -99.4569 65° Northeast 442 509 37,000  Level Denver Center
Sun 11:01:16 AM 41.0444 -99.3094 65° Northeast 442 509 37,000  Level Denver Center
Sun 11:02:18 AM 41.0969 -99.1606 65° Northeast 444 511 37,000  Level Denver Center
Sun 11:03:20 AM 41.1564 -98.9906 65° Northeast 445 512 37,000  Level Denver Center
Sun 11:04:23 AM 41.2061 -98.8458 65° Northeast 449 517 37,000  Level Denver Center
Sun 11:05:00 AM 41.2328 -98.7725 64° Northeast 447 514 37,000  Level Minneapolis Center
Sun 11:06:03 AM 41.2972 -98.5903 65° Northeast 450 518 37,000  Level Minneapolis Center
Sun 11:07:17 AM 41.3622 -98.3958 66° East 453 521 37,000  Level Minneapolis Center
Sun 11:08:19 AM 41.4133 -98.2450 66° East 448 516 37,000  Level Minneapolis Center
Sun 11:09:21 AM 41.4575 -98.1050 67° East 447 514 37,000  Level Minneapolis Center
Sun 11:10:23 AM 41.5169 -97.9228 66° East 447 514 37,000 194 Level Minneapolis Center
Sun 11:11:25 AM 41.5664 -97.7703 67° East 447 514 37,400 919 Climbing Minneapolis Center
Sun 11:12:27 AM 41.6150 -97.6214 66° East 439 505 38,900 774 Climbing Minneapolis Center
Sun 11:13:29 AM 41.6606 -97.4767 67° East 426 490 39,000 48 Climbing Minneapolis Center
Sun 11:14:31 AM 41.7056 -97.3339 67° East 418 481 39,000  Level Minneapolis Center
Sun 11:15:46 AM 41.7594 -97.1611 67° East 419 482 39,000  Level Minneapolis Center
Sun 11:16:48 AM 41.8061 -97.0136 67° East 425 489 39,000  Level Minneapolis Center
Sun 11:17:50 AM 41.8628 -96.8331 67° East 433 498 39,000  Level Minneapolis Center
Sun 11:18:52 AM 41.9092 -96.6828 67° East 434 499 39,000  Level Minneapolis Center
Sun 11:19:54 AM 41.9525 -96.5322 69° East 432 497 39,000  Level Minneapolis Center
Sun 11:20:56 AM 41.9778 -96.3728 78° East 433 498 39,000  Level Minneapolis Center
Sun 11:21:58 AM 42.0017 -96.2114 79° East 435 501 39,000  Level Minneapolis Center
Sun 11:23:00 AM 42.0247 -96.0514 79° East 435 501 39,000  Level Minneapolis Center
Sun 11:24:02 AM 42.0456 -95.8897 80° East 435 501 39,000  Level Minneapolis Center
Sun 11:25:04 AM 42.0681 -95.7303 79° East 433 498 39,000  Level Minneapolis Center
Sun 11:26:06 AM 42.0956 -95.5400 79° East 433 498 39,000  Level Minneapolis Center
Sun 11:27:08 AM 42.1186 -95.3806 79° East 432 497 39,000 -48 Level Minneapolis Center
Sun 11:28:10 AM 42.1408 -95.2233 79° East 429 494 38,900 -581 Descending Minneapolis Center
Sun 11:29:12 AM 42.1614 -95.0664 80° East 426 490 37,800 -838 Descending Minneapolis Center
Sun 11:30:26 AM 42.1817 -94.9072 80° East 428 493 37,000 -350 Descending Minneapolis Center
Sun 11:31:29 AM 42.2067 -94.7189 80° East 425 489 37,000  Level Minneapolis Center
Sun 11:32:31 AM 42.2314 -94.5289 80° East 428 493 37,000  Level Minneapolis Center
Sun 11:33:33 AM 42.2506 -94.3678 81° East 432 497 37,000  Level Minneapolis Center
Sun 11:34:35 AM 42.2714 -94.2053 80° East 432 497 37,000  Level Minneapolis Center
Sun 11:35:37 AM 42.2917 -94.0467 80° East 433 498 37,000  Level Minneapolis Center
Sun 11:36:39 AM 42.3125 -93.8883 80° East 433 498 37,000  Level Minneapolis Center
Sun 11:37:41 AM 42.3319 -93.7303 80° East 433 498 37,000  Level Minneapolis Center
Sun 11:38:43 AM 42.3542 -93.5408 81° East 430 495 37,000  Level Minneapolis Center
Sun 11:39:45 AM 42.3719 -93.3825 81° East 431 496 37,000  Level Minneapolis Center
Sun 11:40:47 AM 42.3928 -93.2253 80° East 430 495 37,000  Level Minneapolis Center
Sun 11:41:49 AM 42.4108 -93.0667 81° East 430 495 37,000  Level Minneapolis Center
Sun 11:42:20 AM 42.4217 -92.9700 81° East 433 498 37,000  Level Chicago Center
Sun 11:43:22 AM 42.4394 -92.8103 81° East 433 498 37,000  Level Chicago Center
Sun 11:44:24 AM 42.4569 -92.6528 81° East 430 495 37,000  Level Chicago Center
Sun 11:45:26 AM 42.4756 -92.4942 81° East 431 496 37,000 -439 Level Chicago Center
Sun 11:46:27 AM 42.4961 -92.3050 82° East 428 493 36,100 -1,805 Descending Chicago Center
Sun 11:47:29 AM 42.5131 -92.1453 82° East 433 498 33,300 -1,645 Descending Chicago Center
Sun 11:48:31 AM 42.5236 -91.9731 85° East 460 529 32,700 -823 Descending Chicago Center
Sun 11:49:33 AM 42.5261 -91.8067 89° East 452 520 31,600 -823 Descending Chicago Center
Sun 11:50:35 AM 42.5253 -91.6469 90° East 440 506 31,000 -290 Descending Chicago Center
Sun 11:51:37 AM 42.5269 -91.4544 89° East 437 503 31,000  Level Chicago Center
Sun 11:52:39 AM 42.5264 -91.2928 90° East 435 501 31,000  Level Chicago Center
Sun 11:53:41 AM 42.5264 -91.1292 90° East 442 509 31,000  Level Chicago Center
Sun 11:54:43 AM 42.5250 -90.9656 91° East 441 507 31,000  Level Chicago Center
Sun 11:55:45 AM 42.5239 -90.7686 90° East 443 510 31,000  Level Chicago Center
Sun 11:56:47 AM 42.5228 -90.6036 90° East 442 509 31,000  Level Chicago Center
Sun 11:57:49 AM 42.5217 -90.4411 90° East 439 505 31,000  Level Chicago Center
Sun 11:58:51 AM 42.5197 -90.2792 91° East 436 502 31,000 -484 Level Chicago Center
Sun 11:59:53 AM 42.5097 -90.1208 95° East 428 493 30,000 -1,500 Descending Chicago Center
Sun 12:00:55 PM 42.4939 -89.9339 96° East 420 483 27,900 -2,032 Descending Chicago Center
Sun 12:01:57 PM 42.4822 -89.7697 95° East 407 468 25,800 -1,984 Descending Chicago Center
Sun 12:02:59 PM 42.4700 -89.6222 96° East 395 455 23,800 -1,935 Descending Chicago Center
Sun 12:04:01 PM 42.4594 -89.4778 96° East 388 447 21,800 -1,935 Descending Chicago Center
Sun 12:05:03 PM 42.4469 -89.3358 97° East 381 438 19,800 -1,887 Descending Chicago Center
Sun 12:06:05 PM 42.4350 -89.1975 97° East 371 427 17,900 -2,160 Descending Chicago Center
Sun 12:07:08 PM 42.4219 -89.0347 96° East 373 429 15,300 -2,256 Descending Chicago Center
Sun 12:08:10 PM 42.4097 -88.8978 97° East 367 422 13,200 -1,984 Descending Chicago Center
Sun 12:09:12 PM 42.3986 -88.7633 96° East 360 414 11,200 -1,500 Descending Chicago Center
Sun 12:10:14 PM 42.3872 -88.6367 97° East 343 395 10,100 -823 Descending Chicago Center
Sun 12:11:16 PM 42.3778 -88.5253 97° East 309 356 9,500 -532 Descending Chicago Center
Sun 12:12:18 PM 42.3481 -88.4144 110° East 274 315 9,000 -871 Descending Chicago Center
Sun 12:13:20 PM 42.2994 -88.3400 131° Southeast 264 304 7,700 -1,258 Descending Chicago Center
Sun 12:14:22 PM 42.2522 -88.2672 131° Southeast 260 299 6,400 -1,210 Descending Chicago Center
Sun 12:15:24 PM 42.2047 -88.1956 132° Southeast 259 298 5,200 -677 Descending Chicago Center
Sun 12:16:26 PM 42.1597 -88.1250 131° Southeast 252 290 5,000 -594 Descending Chicago Center
Sun 12:17:05 PM 42.1167 -88.0833 144° Southeast 217 250 4,200 -1,231 Descending Chicago TRACON

Login

Don't have an account? Register now (free) for customized features, flight alerts, and more!